Terminal Aerodrome Forecast
Issued by NWS Topeka, KS

Home | Current Version | Previous Version | Text Only | Print | Product List | Glossary Off
Versions: 1 2 3 4 5 6 7 8 9 10 11 12 13 14 15 16 17 18 19 20 21 22 23 24 25 26 27 28

000
FTUS43 KTOP 181100
TAFTOP
TAF
KTOP 181121Z 1812/1912 08006KT 6SM BR BKN008
     FM181800 09006KT P6SM BKN015
     FM182000 10008KT P6SM SCT025 BKN150
     FM190800 12004KT 4SM BR BKN007=

USA.gov is the U.S. government's official web portal to all federal, state and local government web resources and services.